sensor_id;sensor_type;location;lat;lon;timestamp;P1;durP1;ratioP1;P2;durP2;ratioP2
66189;SDS011;52992;52.084;5.412;2023-02-15T00:02:00;32.20;;;15.63;;
66189;SDS011;52992;52.084;5.412;2023-02-15T00:04:27;30.87;;;14.73;;
66189;SDS011;52992;52.084;5.412;2023-02-15T00:07:13;31.03;;;15.53;;
66189;SDS011;52992;52.084;5.412;2023-02-15T00:09:42;29.37;;;15.00;;
66189;SDS011;52992;52.084;5.412;2023-02-15T00:12:09;28.33;;;15.87;;
66189;SDS011;52992;52.084;5.412;2023-02-15T00:14:36;26.30;;;14.27;;
66189;SDS011;52992;52.084;5.412;2023-02-15T00:17:03;28.07;;;14.57;;
66189;SDS011;52992;52.084;5.412;2023-02-15T00:19:30;28.47;;;14.30;;
66189;SDS011;52992;52.084;5.412;2023-02-15T00:21:57;29.67;;;15.97;;
66189;SDS011;52992;52.084;5.412;2023-02-15T00:24:24;29.90;;;15.33;;
66189;SDS011;52992;52.084;5.412;2023-02-15T00:26:51;33.53;;;15.93;;
66189;SDS011;52992;52.084;5.412;2023-02-15T00:29:18;29.90;;;15.80;;
66189;SDS011;52992;52.084;5.412;2023-02-15T00:31:45;29.10;;;14.90;;
66189;SDS011;52992;52.084;5.412;2023-02-15T00:34:14;28.60;;;15.77;;
66189;SDS011;52992;52.084;5.412;2023-02-15T00:36:42;35.22;;;18.33;;
66189;SDS011;52992;52.084;5.412;2023-02-15T00:39:10;33.40;;;16.60;;
66189;SDS011;52992;52.084;5.412;2023-02-15T00:41:37;35.70;;;18.83;;
66189;SDS011;52992;52.084;5.412;2023-02-15T00:44:05;30.97;;;15.23;;
66189;SDS011;52992;52.084;5.412;2023-02-15T00:46:33;30.30;;;16.10;;
66189;SDS011;52992;52.084;5.412;2023-02-15T00:48:59;27.03;;;15.00;;
66189;SDS011;52992;52.084;5.412;2023-02-15T00:51:26;28.70;;;14.80;;
66189;SDS011;52992;52.084;5.412;2023-02-15T00:53:53;32.43;;;14.80;;
66189;SDS011;52992;52.084;5.412;2023-02-15T00:56:20;26.53;;;14.30;;
66189;SDS011;52992;52.084;5.412;2023-02-15T00:58:47;28.70;;;13.73;;
66189;SDS011;52992;52.084;5.412;2023-02-15T01:01:15;29.70;;;13.70;;
66189;SDS011;52992;52.084;5.412;2023-02-15T01:03:44;26.83;;;13.30;;
66189;SDS011;52992;52.084;5.412;2023-02-15T01:06:13;31.13;;;14.37;;
66189;SDS011;52992;52.084;5.412;2023-02-15T01:08:42;29.20;;;14.23;;
66189;SDS011;52992;52.084;5.412;2023-02-15T01:11:10;31.10;;;14.53;;
66189;SDS011;52992;52.084;5.412;2023-02-15T01:13:50;28.03;;;13.83;;
66189;SDS011;52992;52.084;5.412;2023-02-15T01:16:22;30.97;;;14.97;;
66189;SDS011;52992;52.084;5.412;2023-02-15T01:18:51;32.07;;;15.30;;
66189;SDS011;52992;52.084;5.412;2023-02-15T01:21:19;30.93;;;15.20;;
66189;SDS011;52992;52.084;5.412;2023-02-15T01:23:47;24.87;;;13.87;;
66189;SDS011;52992;52.084;5.412;2023-02-15T01:26:15;29.93;;;15.57;;
66189;SDS011;52992;52.084;5.412;2023-02-15T01:28:42;33.63;;;15.93;;
66189;SDS011;52992;52.084;5.412;2023-02-15T01:31:11;32.50;;;15.80;;
66189;SDS011;52992;52.084;5.412;2023-02-15T01:33:40;28.17;;;14.97;;
66189;SDS011;52992;52.084;5.412;2023-02-15T01:36:08;39.97;;;16.43;;
66189;SDS011;52992;52.084;5.412;2023-02-15T01:38:37;33.33;;;16.50;;
66189;SDS011;52992;52.084;5.412;2023-02-15T01:41:05;39.70;;;16.73;;
66189;SDS011;52992;52.084;5.412;2023-02-15T01:43:56;37.83;;;17.23;;
66189;SDS011;52992;52.084;5.412;2023-02-15T01:46:38;32.33;;;15.77;;
66189;SDS011;52992;52.084;5.412;2023-02-15T01:49:13;32.13;;;16.13;;
66189;SDS011;52992;52.084;5.412;2023-02-15T01:51:43;34.10;;;14.70;;
66189;SDS011;52992;52.084;5.412;2023-02-15T01:54:15;41.63;;;16.57;;
66189;SDS011;52992;52.084;5.412;2023-02-15T01:56:51;32.83;;;16.87;;
66189;SDS011;52992;52.084;5.412;2023-02-15T01:59:20;32.37;;;15.13;;
66189;SDS011;52992;52.084;5.412;2023-02-15T02:01:50;37.87;;;16.37;;
66189;SDS011;52992;52.084;5.412;2023-02-15T02:04:31;34.97;;;15.67;;
66189;SDS011;52992;52.084;5.412;2023-02-15T02:07:07;34.30;;;16.40;;
66189;SDS011;52992;52.084;5.412;2023-02-15T02:09:37;31.67;;;15.60;;
66189;SDS011;52992;52.084;5.412;2023-02-15T02:12:04;27.00;;;14.60;;
66189;SDS011;52992;52.084;5.412;2023-02-15T02:14:31;30.27;;;15.13;;
66189;SDS011;52992;52.084;5.412;2023-02-15T02:27:37;27.90;;;14.53;;
66189;SDS011;52992;52.084;5.412;2023-02-15T02:30:16;31.30;;;14.60;;
66189;SDS011;52992;52.084;5.412;2023-02-15T02:33:02;28.00;;;15.43;;
66189;SDS011;52992;52.084;5.412;2023-02-15T02:38:51;27.43;;;14.13;;
66189;SDS011;52992;52.084;5.412;2023-02-15T02:49:38;30.63;;;14.63;;
66189;SDS011;52992;52.084;5.412;2023-02-15T02:52:31;26.83;;;14.67;;
66189;SDS011;52992;52.084;5.412;2023-02-15T02:55:11;32.67;;;14.47;;
66189;SDS011;52992;52.084;5.412;2023-02-15T02:57:52;30.47;;;14.50;;
66189;SDS011;52992;52.084;5.412;2023-02-15T03:00:53;27.90;;;14.87;;
66189;SDS011;52992;52.084;5.412;2023-02-15T03:03:37;29.27;;;14.63;;
66189;SDS011;52992;52.084;5.412;2023-02-15T03:06:16;27.70;;;13.80;;
66189;SDS011;52992;52.084;5.412;2023-02-15T03:09:28;31.33;;;15.47;;
66189;SDS011;52992;52.084;5.412;2023-02-15T03:12:13;27.97;;;14.53;;
66189;SDS011;52992;52.084;5.412;2023-02-15T03:17:54;32.10;;;16.30;;
66189;SDS011;52992;52.084;5.412;2023-02-15T03:20:26;32.93;;;15.60;;
66189;SDS011;52992;52.084;5.412;2023-02-15T03:23:01;34.90;;;16.60;;
66189;SDS011;52992;52.084;5.412;2023-02-15T03:25:32;32.03;;;15.77;;
66189;SDS011;52992;52.084;5.412;2023-02-15T03:28:11;32.80;;;15.43;;
66189;SDS011;52992;52.084;5.412;2023-02-15T03:30:42;32.37;;;15.47;;
66189;SDS011;52992;52.084;5.412;2023-02-15T03:33:12;32.93;;;15.17;;
66189;SDS011;52992;52.084;5.412;2023-02-15T03:35:44;32.37;;;15.27;;
66189;SDS011;52992;52.084;5.412;2023-02-15T03:38:17;30.83;;;15.33;;
66189;SDS011;52992;52.084;5.412;2023-02-15T03:41:06;27.30;;;14.83;;
66189;SDS011;52992;52.084;5.412;2023-02-15T03:43:48;32.53;;;16.60;;
66189;SDS011;52992;52.084;5.412;2023-02-15T03:46:25;33.97;;;15.47;;
66189;SDS011;52992;52.084;5.412;2023-02-15T03:49:08;30.03;;;15.27;;
66189;SDS011;52992;52.084;5.412;2023-02-15T03:51:40;30.20;;;15.17;;
66189;SDS011;52992;52.084;5.412;2023-02-15T03:54:13;31.83;;;15.00;;
66189;SDS011;52992;52.084;5.412;2023-02-15T03:57:06;30.97;;;15.13;;
66189;SDS011;52992;52.084;5.412;2023-02-15T03:59:54;35.10;;;16.37;;
66189;SDS011;52992;52.084;5.412;2023-02-15T04:02:42;33.13;;;15.33;;
66189;SDS011;52992;52.084;5.412;2023-02-15T04:05:30;30.63;;;14.90;;
66189;SDS011;52992;52.084;5.412;2023-02-15T04:07:57;29.03;;;15.03;;
66189;SDS011;52992;52.084;5.412;2023-02-15T04:10:23;28.47;;;13.77;;
66189;SDS011;52992;52.084;5.412;2023-02-15T04:13:09;30.53;;;16.00;;
66189;SDS011;52992;52.084;5.412;2023-02-15T04:15:36;29.13;;;15.03;;
66189;SDS011;52992;52.084;5.412;2023-02-15T04:18:21;26.50;;;14.70;;
66189;SDS011;52992;52.084;5.412;2023-02-15T04:21:07;31.57;;;14.67;;
66189;SDS011;52992;52.084;5.412;2023-02-15T04:23:52;29.83;;;14.23;;
66189;SDS011;52992;52.084;5.412;2023-02-15T04:26:38;32.97;;;16.10;;
66189;SDS011;52992;52.084;5.412;2023-02-15T04:29:05;33.03;;;15.60;;
66189;SDS011;52992;52.084;5.412;2023-02-15T04:31:32;32.20;;;14.97;;
66189;SDS011;52992;52.084;5.412;2023-02-15T04:33:59;28.07;;;15.53;;
66189;SDS011;52992;52.084;5.412;2023-02-15T04:36:25;30.07;;;15.37;;
66189;SDS011;52992;52.084;5.412;2023-02-15T04:38:52;31.80;;;15.07;;
66189;SDS011;52992;52.084;5.412;2023-02-15T04:41:19;28.77;;;15.07;;
66189;SDS011;52992;52.084;5.412;2023-02-15T04:43:46;32.57;;;16.00;;
66189;SDS011;52992;52.084;5.412;2023-02-15T04:46:13;29.93;;;14.90;;
66189;SDS011;52992;52.084;5.412;2023-02-15T04:48:40;27.87;;;14.73;;
66189;SDS011;52992;52.084;5.412;2023-02-15T04:51:07;25.57;;;13.63;;
66189;SDS011;52992;52.084;5.412;2023-02-15T04:53:35;32.10;;;15.40;;
66189;SDS011;52992;52.084;5.412;2023-02-15T04:56:02;30.33;;;14.63;;
66189;SDS011;52992;52.084;5.412;2023-02-15T04:58:29;28.47;;;14.87;;
66189;SDS011;52992;52.084;5.412;2023-02-15T05:00:56;34.33;;;14.87;;
66189;SDS011;52992;52.084;5.412;2023-02-15T05:03:23;31.27;;;14.90;;
66189;SDS011;52992;52.084;5.412;2023-02-15T05:05:51;29.23;;;14.63;;
66189;SDS011;52992;52.084;5.412;2023-02-15T05:08:17;30.80;;;14.77;;
66189;SDS011;52992;52.084;5.412;2023-02-15T05:10:44;32.57;;;15.30;;
66189;SDS011;52992;52.084;5.412;2023-02-15T05:13:13;28.47;;;14.23;;
66189;SDS011;52992;52.084;5.412;2023-02-15T05:15:40;29.07;;;14.70;;
66189;SDS011;52992;52.084;5.412;2023-02-15T05:18:10;24.50;;;14.40;;
66189;SDS011;52992;52.084;5.412;2023-02-15T05:20:36;26.60;;;14.63;;
66189;SDS011;52992;52.084;5.412;2023-02-15T05:23:03;36.60;;;15.40;;
66189;SDS011;52992;52.084;5.412;2023-02-15T05:25:30;28.33;;;14.27;;
66189;SDS011;52992;52.084;5.412;2023-02-15T05:28:15;31.57;;;16.10;;
66189;SDS011;52992;52.084;5.412;2023-02-15T05:30:49;27.33;;;14.23;;
66189;SDS011;52992;52.084;5.412;2023-02-15T05:33:17;28.07;;;13.93;;
66189;SDS011;52992;52.084;5.412;2023-02-15T05:35:44;31.60;;;14.87;;
66189;SDS011;52992;52.084;5.412;2023-02-15T05:38:11;32.07;;;15.80;;
66189;SDS011;52992;52.084;5.412;2023-02-15T05:40:38;34.50;;;15.13;;
66189;SDS011;52992;52.084;5.412;2023-02-15T05:43:04;29.10;;;14.40;;
66189;SDS011;52992;52.084;5.412;2023-02-15T05:45:31;22.70;;;13.93;;
66189;SDS011;52992;52.084;5.412;2023-02-15T05:47:58;30.77;;;14.80;;
66189;SDS011;52992;52.084;5.412;2023-02-15T05:50:25;26.77;;;13.97;;
66189;SDS011;52992;52.084;5.412;2023-02-15T05:52:52;27.63;;;14.67;;
66189;SDS011;52992;52.084;5.412;2023-02-15T05:55:19;29.70;;;15.07;;
66189;SDS011;52992;52.084;5.412;2023-02-15T05:57:46;29.20;;;14.43;;
66189;SDS011;52992;52.084;5.412;2023-02-15T06:00:13;28.80;;;13.73;;
66189;SDS011;52992;52.084;5.412;2023-02-15T06:02:40;27.90;;;14.37;;
66189;SDS011;52992;52.084;5.412;2023-02-15T06:05:07;31.13;;;15.30;;
66189;SDS011;52992;52.084;5.412;2023-02-15T06:07:34;31.70;;;14.73;;
66189;SDS011;52992;52.084;5.412;2023-02-15T06:10:01;27.53;;;14.73;;
66189;SDS011;52992;52.084;5.412;2023-02-15T06:12:28;30.97;;;16.03;;
66189;SDS011;52992;52.084;5.412;2023-02-15T06:14:55;33.80;;;15.60;;
66189;SDS011;52992;52.084;5.412;2023-02-15T06:17:22;29.03;;;14.30;;
66189;SDS011;52992;52.084;5.412;2023-02-15T06:19:49;29.63;;;13.73;;
66189;SDS011;52992;52.084;5.412;2023-02-15T06:22:16;29.97;;;14.40;;
66189;SDS011;52992;52.084;5.412;2023-02-15T06:24:43;30.33;;;15.00;;
66189;SDS011;52992;52.084;5.412;2023-02-15T06:27:09;29.73;;;14.83;;
66189;SDS011;52992;52.084;5.412;2023-02-15T06:29:36;28.03;;;15.03;;
66189;SDS011;52992;52.084;5.412;2023-02-15T06:32:03;34.13;;;15.53;;
66189;SDS011;52992;52.084;5.412;2023-02-15T06:34:31;29.63;;;14.73;;
66189;SDS011;52992;52.084;5.412;2023-02-15T06:36:58;27.40;;;13.63;;
66189;SDS011;52992;52.084;5.412;2023-02-15T06:39:25;35.37;;;15.83;;
66189;SDS011;52992;52.084;5.412;2023-02-15T06:41:52;29.23;;;14.73;;
66189;SDS011;52992;52.084;5.412;2023-02-15T06:44:19;32.53;;;14.77;;
66189;SDS011;52992;52.084;5.412;2023-02-15T06:46:45;30.23;;;14.57;;
66189;SDS011;52992;52.084;5.412;2023-02-15T06:49:12;30.63;;;15.60;;
66189;SDS011;52992;52.084;5.412;2023-02-15T06:51:39;26.37;;;15.53;;
66189;SDS011;52992;52.084;5.412;2023-02-15T06:54:06;29.97;;;14.97;;
66189;SDS011;52992;52.084;5.412;2023-02-15T06:56:33;30.77;;;14.63;;
66189;SDS011;52992;52.084;5.412;2023-02-15T06:59:00;29.80;;;16.03;;
66189;SDS011;52992;52.084;5.412;2023-02-15T07:01:28;36.77;;;16.70;;
66189;SDS011;52992;52.084;5.412;2023-02-15T07:03:55;35.10;;;15.47;;
66189;SDS011;52992;52.084;5.412;2023-02-15T07:06:22;39.70;;;17.67;;
66189;SDS011;52992;52.084;5.412;2023-02-15T07:08:49;30.43;;;15.83;;
66189;SDS011;52992;52.084;5.412;2023-02-15T07:11:15;32.37;;;17.00;;
66189;SDS011;52992;52.084;5.412;2023-02-15T07:14:01;35.73;;;17.23;;
66189;SDS011;52992;52.084;5.412;2023-02-15T07:16:28;35.37;;;16.67;;
66189;SDS011;52992;52.084;5.412;2023-02-15T07:18:54;31.07;;;15.10;;
66189;SDS011;52992;52.084;5.412;2023-02-15T07:21:21;38.43;;;17.20;;
66189;SDS011;52992;52.084;5.412;2023-02-15T07:23:48;35.47;;;16.63;;
66189;SDS011;52992;52.084;5.412;2023-02-15T07:26:15;34.67;;;17.33;;
66189;SDS011;52992;52.084;5.412;2023-02-15T07:28:42;34.03;;;17.40;;
66189;SDS011;52992;52.084;5.412;2023-02-15T07:31:09;30.43;;;15.83;;
66189;SDS011;52992;52.084;5.412;2023-02-15T07:33:36;33.27;;;15.93;;
66189;SDS011;52992;52.084;5.412;2023-02-15T07:36:03;34.33;;;17.50;;
66189;SDS011;52992;52.084;5.412;2023-02-15T07:38:33;42.70;;;18.43;;
66189;SDS011;52992;52.084;5.412;2023-02-15T07:41:03;41.57;;;18.40;;
66189;SDS011;52992;52.084;5.412;2023-02-15T07:43:33;37.00;;;17.00;;
66189;SDS011;52992;52.084;5.412;2023-02-15T07:46:01;32.00;;;16.83;;
66189;SDS011;52992;52.084;5.412;2023-02-15T07:48:30;35.37;;;18.87;;
66189;SDS011;52992;52.084;5.412;2023-02-15T07:51:01;34.57;;;17.60;;
66189;SDS011;52992;52.084;5.412;2023-02-15T07:53:29;37.37;;;17.63;;
66189;SDS011;52992;52.084;5.412;2023-02-15T07:56:00;31.67;;;16.60;;
66189;SDS011;52992;52.084;5.412;2023-02-15T07:58:28;35.43;;;17.33;;
66189;SDS011;52992;52.084;5.412;2023-02-15T08:01:14;32.03;;;17.20;;
66189;SDS011;52992;52.084;5.412;2023-02-15T08:03:41;33.53;;;18.00;;
66189;SDS011;52992;52.084;5.412;2023-02-15T08:06:08;38.53;;;18.47;;
66189;SDS011;52992;52.084;5.412;2023-02-15T08:08:35;34.60;;;18.87;;
66189;SDS011;52992;52.084;5.412;2023-02-15T08:14:06;41.53;;;20.90;;
66189;SDS011;52992;52.084;5.412;2023-02-15T08:19:01;40.13;;;19.10;;
66189;SDS011;52992;52.084;5.412;2023-02-15T08:21:40;36.93;;;18.33;;
66189;SDS011;52992;52.084;5.412;2023-02-15T08:24:09;37.63;;;19.33;;
66189;SDS011;52992;52.084;5.412;2023-02-15T08:26:36;35.37;;;18.30;;
66189;SDS011;52992;52.084;5.412;2023-02-15T08:29:07;37.57;;;19.53;;
66189;SDS011;52992;52.084;5.412;2023-02-15T08:31:35;43.17;;;19.50;;
66189;SDS011;52992;52.084;5.412;2023-02-15T08:34:04;36.57;;;17.63;;
66189;SDS011;52992;52.084;5.412;2023-02-15T08:36:31;42.30;;;19.37;;
66189;SDS011;52992;52.084;5.412;2023-02-15T08:38:59;42.63;;;19.67;;
66189;SDS011;52992;52.084;5.412;2023-02-15T08:41:31;46.33;;;20.80;;
66189;SDS011;52992;52.084;5.412;2023-02-15T08:44:03;47.03;;;20.20;;
66189;SDS011;52992;52.084;5.412;2023-02-15T08:46:33;44.00;;;19.97;;
66189;SDS011;52992;52.084;5.412;2023-02-15T08:49:02;43.47;;;21.17;;
66189;SDS011;52992;52.084;5.412;2023-02-15T08:51:30;42.10;;;20.10;;
66189;SDS011;52992;52.084;5.412;2023-02-15T08:54:00;39.50;;;20.10;;
66189;SDS011;52992;52.084;5.412;2023-02-15T08:56:31;41.47;;;20.03;;
66189;SDS011;52992;52.084;5.412;2023-02-15T08:59:03;50.43;;;20.77;;
66189;SDS011;52992;52.084;5.412;2023-02-15T09:01:31;45.83;;;20.27;;
66189;SDS011;52992;52.084;5.412;2023-02-15T09:04:01;39.10;;;20.13;;
66189;SDS011;52992;52.084;5.412;2023-02-15T09:06:30;40.77;;;20.30;;
66189;SDS011;52992;52.084;5.412;2023-02-15T09:08:57;44.43;;;21.53;;
66189;SDS011;52992;52.084;5.412;2023-02-15T09:11:25;50.67;;;22.83;;
66189;SDS011;52992;52.084;5.412;2023-02-15T09:13:55;42.33;;;19.70;;
66189;SDS011;52992;52.084;5.412;2023-02-15T09:16:24;39.60;;;19.70;;
66189;SDS011;52992;52.084;5.412;2023-02-15T09:18:53;45.80;;;20.90;;
66189;SDS011;52992;52.084;5.412;2023-02-15T09:21:21;44.40;;;22.03;;
66189;SDS011;52992;52.084;5.412;2023-02-15T09:23:49;43.73;;;21.33;;
66189;SDS011;52992;52.084;5.412;2023-02-15T09:26:20;39.67;;;21.40;;
66189;SDS011;52992;52.084;5.412;2023-02-15T09:28:51;42.63;;;20.37;;
66189;SDS011;52992;52.084;5.412;2023-02-15T09:31:24;51.23;;;20.50;;
66189;SDS011;52992;52.084;5.412;2023-02-15T09:33:53;43.03;;;20.23;;
66189;SDS011;52992;52.084;5.412;2023-02-15T09:36:31;41.23;;;20.10;;
66189;SDS011;52992;52.084;5.412;2023-02-15T09:39:11;42.27;;;19.83;;
66189;SDS011;52992;52.084;5.412;2023-02-15T09:44:17;42.87;;;20.57;;
66189;SDS011;52992;52.084;5.412;2023-02-15T09:52:21;46.77;;;22.67;;
66189;SDS011;52992;52.084;5.412;2023-02-15T09:57:47;44.17;;;20.30;;
66189;SDS011;52992;52.084;5.412;2023-02-15T10:00:44;46.87;;;22.03;;
66189;SDS011;52992;52.084;5.412;2023-02-15T10:05:58;42.27;;;21.53;;
66189;SDS011;52992;52.084;5.412;2023-02-15T10:28:08;41.10;;;20.27;;
66189;SDS011;52992;52.084;5.412;2023-02-15T10:30:46;51.17;;;23.00;;
66189;SDS011;52992;52.084;5.412;2023-02-15T10:39:06;49.23;;;22.57;;
66189;SDS011;52992;52.084;5.412;2023-02-15T10:44:21;46.40;;;22.10;;
66189;SDS011;52992;52.084;5.412;2023-02-15T11:08:36;44.57;;;21.67;;
66189;SDS011;52992;52.084;5.412;2023-02-15T11:11:07;44.17;;;21.43;;
66189;SDS011;52992;52.084;5.412;2023-02-15T11:13:47;41.87;;;22.43;;
66189;SDS011;52992;52.084;5.412;2023-02-15T11:16:18;46.37;;;23.10;;
66189;SDS011;52992;52.084;5.412;2023-02-15T11:18:55;43.57;;;22.30;;
66189;SDS011;52992;52.084;5.412;2023-02-15T11:21:26;48.67;;;22.53;;
66189;SDS011;52992;52.084;5.412;2023-02-15T11:23:59;40.67;;;21.73;;
66189;SDS011;52992;52.084;5.412;2023-02-15T11:26:43;43.90;;;20.50;;
66189;SDS011;52992;52.084;5.412;2023-02-15T11:29:44;43.37;;;21.87;;
66189;SDS011;52992;52.084;5.412;2023-02-15T11:32:33;41.93;;;20.57;;
66189;SDS011;52992;52.084;5.412;2023-02-15T11:40:50;44.70;;;21.53;;
66189;SDS011;52992;52.084;5.412;2023-02-15T11:43:34;38.03;;;20.93;;
66189;SDS011;52992;52.084;5.412;2023-02-15T11:46:06;42.83;;;22.17;;
66189;SDS011;52992;52.084;5.412;2023-02-15T11:48:37;37.93;;;19.17;;
66189;SDS011;52992;52.084;5.412;2023-02-15T11:51:05;38.27;;;20.30;;
66189;SDS011;52992;52.084;5.412;2023-02-15T11:53:32;38.10;;;20.77;;
66189;SDS011;52992;52.084;5.412;2023-02-15T11:56:02;46.20;;;20.67;;
66189;SDS011;52992;52.084;5.412;2023-02-15T11:58:33;45.60;;;20.63;;
66189;SDS011;52992;52.084;5.412;2023-02-15T12:03:50;39.87;;;19.77;;
66189;SDS011;52992;52.084;5.412;2023-02-15T12:06:41;45.27;;;21.97;;
66189;SDS011;52992;52.084;5.412;2023-02-15T12:09:28;42.60;;;20.73;;
66189;SDS011;52992;52.084;5.412;2023-02-15T12:12:22;44.50;;;20.67;;
66189;SDS011;52992;52.084;5.412;2023-02-15T12:14:54;41.83;;;21.17;;
66189;SDS011;52992;52.084;5.412;2023-02-15T12:17:23;43.33;;;20.07;;
66189;SDS011;52992;52.084;5.412;2023-02-15T12:19:53;34.00;;;21.03;;
66189;SDS011;52992;52.084;5.412;2023-02-15T12:22:27;42.83;;;21.10;;
66189;SDS011;52992;52.084;5.412;2023-02-15T12:24:57;41.53;;;22.10;;
66189;SDS011;52992;52.084;5.412;2023-02-15T12:27:30;39.07;;;21.00;;
66189;SDS011;52992;52.084;5.412;2023-02-15T12:30:06;39.77;;;21.47;;
66189;SDS011;52992;52.084;5.412;2023-02-15T12:32:47;39.77;;;20.53;;
66189;SDS011;52992;52.084;5.412;2023-02-15T12:35:27;44.93;;;20.57;;
66189;SDS011;52992;52.084;5.412;2023-02-15T12:38:26;43.63;;;21.17;;
66189;SDS011;52992;52.084;5.412;2023-02-15T12:40:59;38.03;;;20.60;;
66189;SDS011;52992;52.084;5.412;2023-02-15T12:43:32;44.70;;;21.43;;
66189;SDS011;52992;52.084;5.412;2023-02-15T12:46:14;41.73;;;21.73;;
66189;SDS011;52992;52.084;5.412;2023-02-15T12:48:40;42.17;;;21.07;;
66189;SDS011;52992;52.084;5.412;2023-02-15T12:51:08;42.87;;;21.47;;
66189;SDS011;52992;52.084;5.412;2023-02-15T12:53:36;37.77;;;21.87;;
66189;SDS011;52992;52.084;5.412;2023-02-15T12:56:05;40.83;;;20.90;;
66189;SDS011;52992;52.084;5.412;2023-02-15T12:58:34;42.20;;;21.70;;
66189;SDS011;52992;52.084;5.412;2023-02-15T13:01:04;45.50;;;22.30;;
66189;SDS011;52992;52.084;5.412;2023-02-15T13:03:39;42.43;;;21.53;;
66189;SDS011;52992;52.084;5.412;2023-02-15T13:06:32;41.73;;;22.07;;
66189;SDS011;52992;52.084;5.412;2023-02-15T13:09:14;40.57;;;21.23;;
66189;SDS011;52992;52.084;5.412;2023-02-15T13:11:44;38.73;;;20.80;;
66189;SDS011;52992;52.084;5.412;2023-02-15T13:16:47;44.77;;;20.83;;
66189;SDS011;52992;52.084;5.412;2023-02-15T13:19:17;41.20;;;20.53;;
66189;SDS011;52992;52.084;5.412;2023-02-15T13:21:50;42.37;;;20.57;;
66189;SDS011;52992;52.084;5.412;2023-02-15T13:24:22;38.13;;;20.57;;
66189;SDS011;52992;52.084;5.412;2023-02-15T13:26:52;42.83;;;20.27;;
66189;SDS011;52992;52.084;5.412;2023-02-15T13:29:40;46.83;;;22.23;;
66189;SDS011;52992;52.084;5.412;2023-02-15T13:34:54;41.17;;;21.13;;
66189;SDS011;52992;52.084;5.412;2023-02-15T13:37:34;40.57;;;20.27;;
66189;SDS011;52992;52.084;5.412;2023-02-15T13:51:21;40.57;;;20.40;;
66189;SDS011;52992;52.084;5.412;2023-02-15T13:54:22;44.47;;;22.57;;
66189;SDS011;52992;52.084;5.412;2023-02-15T14:00:19;42.00;;;21.87;;
66189;SDS011;52992;52.084;5.412;2023-02-15T14:08:47;40.03;;;22.13;;
66189;SDS011;52992;52.084;5.412;2023-02-15T14:11:44;44.17;;;22.87;;
66189;SDS011;52992;52.084;5.412;2023-02-15T14:14:27;40.33;;;22.40;;
66189;SDS011;52992;52.084;5.412;2023-02-15T14:26:18;43.97;;;22.70;;
66189;SDS011;52992;52.084;5.412;2023-02-15T14:31:40;43.10;;;22.57;;
66189;SDS011;52992;52.084;5.412;2023-02-15T14:34:17;50.03;;;23.17;;
66189;SDS011;52992;52.084;5.412;2023-02-15T14:37:08;46.13;;;23.60;;
66189;SDS011;52992;52.084;5.412;2023-02-15T14:39:48;47.73;;;23.47;;
66189;SDS011;52992;52.084;5.412;2023-02-15T15:07:56;44.77;;;21.93;;
66189;SDS011;52992;52.084;5.412;2023-02-15T15:17:59;45.73;;;22.53;;
66189;SDS011;52992;52.084;5.412;2023-02-15T15:25:45;47.93;;;22.93;;
66189;SDS011;52992;52.084;5.412;2023-02-15T15:29:16;47.27;;;22.17;;
66189;SDS011;52992;52.084;5.412;2023-02-15T15:31:18;42.60;;;21.00;;
66189;SDS011;52992;52.084;5.412;2023-02-15T15:37:17;40.83;;;21.60;;
66189;SDS011;52992;52.084;5.412;2023-02-15T15:48:40;42.87;;;23.10;;
66189;SDS011;52992;52.084;5.412;2023-02-15T15:51:12;47.13;;;24.57;;
66189;SDS011;52992;52.084;5.412;2023-02-15T15:53:46;47.67;;;24.97;;
66189;SDS011;52992;52.084;5.412;2023-02-15T15:56:18;47.43;;;23.23;;
66189;SDS011;52992;52.084;5.412;2023-02-15T15:58:53;47.50;;;23.97;;
66189;SDS011;52992;52.084;5.412;2023-02-15T16:01:24;47.30;;;22.97;;
66189;SDS011;52992;52.084;5.412;2023-02-15T16:03:54;43.43;;;23.17;;
66189;SDS011;52992;52.084;5.412;2023-02-15T16:06:33;48.07;;;22.60;;
66189;SDS011;52992;52.084;5.412;2023-02-15T16:09:12;49.00;;;24.37;;
66189;SDS011;52992;52.084;5.412;2023-02-15T16:11:42;48.90;;;26.87;;
66189;SDS011;52992;52.084;5.412;2023-02-15T16:14:12;43.80;;;25.33;;
66189;SDS011;52992;52.084;5.412;2023-02-15T16:16:46;43.77;;;23.80;;
66189;SDS011;52992;52.084;5.412;2023-02-15T16:19:24;47.87;;;24.03;;
66189;SDS011;52992;52.084;5.412;2023-02-15T16:21:54;45.13;;;23.50;;
66189;SDS011;52992;52.084;5.412;2023-02-15T16:27:24;46.87;;;22.40;;
66189;SDS011;52992;52.084;5.412;2023-02-15T16:33:09;45.23;;;23.47;;
66189;SDS011;52992;52.084;5.412;2023-02-15T16:35:57;52.53;;;25.33;;
66189;SDS011;52992;52.084;5.412;2023-02-15T16:43:56;42.63;;;23.87;;
66189;SDS011;52992;52.084;5.412;2023-02-15T16:46:28;44.00;;;22.77;;
66189;SDS011;52992;52.084;5.412;2023-02-15T16:49:00;45.07;;;23.57;;
66189;SDS011;52992;52.084;5.412;2023-02-15T16:51:31;50.90;;;24.47;;
66189;SDS011;52992;52.084;5.412;2023-02-15T16:54:03;47.63;;;25.50;;
66189;SDS011;52992;52.084;5.412;2023-02-15T16:56:34;48.07;;;23.83;;
66189;SDS011;52992;52.084;5.412;2023-02-15T16:59:02;50.57;;;23.80;;
66189;SDS011;52992;52.084;5.412;2023-02-15T17:01:30;44.70;;;23.60;;
66189;SDS011;52992;52.084;5.412;2023-02-15T17:04:11;44.27;;;23.97;;
66189;SDS011;52992;52.084;5.412;2023-02-15T17:06:38;46.80;;;24.37;;
66189;SDS011;52992;52.084;5.412;2023-02-15T17:09:06;46.13;;;24.33;;
66189;SDS011;52992;52.084;5.412;2023-02-15T17:11:44;47.23;;;24.03;;
66189;SDS011;52992;52.084;5.412;2023-02-15T17:14:12;48.43;;;23.07;;
66189;SDS011;52992;52.084;5.412;2023-02-15T17:19:39;53.67;;;22.87;;
66189;SDS011;52992;52.084;5.412;2023-02-15T17:22:22;52.47;;;24.37;;
66189;SDS011;52992;52.084;5.412;2023-02-15T17:25:00;50.70;;;25.33;;
66189;SDS011;52992;52.084;5.412;2023-02-15T17:27:30;58.27;;;26.10;;
66189;SDS011;52992;52.084;5.412;2023-02-15T17:30:05;54.83;;;25.97;;
66189;SDS011;52992;52.084;5.412;2023-02-15T17:32:57;58.93;;;29.47;;
66189;SDS011;52992;52.084;5.412;2023-02-15T17:35:27;79.37;;;35.47;;
66189;SDS011;52992;52.084;5.412;2023-02-15T17:40:30;58.50;;;29.00;;
66189;SDS011;52992;52.084;5.412;2023-02-15T17:42:59;61.40;;;28.87;;
66189;SDS011;52992;52.084;5.412;2023-02-15T17:45:33;50.57;;;26.53;;
66189;SDS011;52992;52.084;5.412;2023-02-15T17:48:04;47.30;;;24.47;;
66189;SDS011;52992;52.084;5.412;2023-02-15T17:50:32;51.90;;;25.63;;
66189;SDS011;52992;52.084;5.412;2023-02-15T17:52:59;51.67;;;24.63;;
66189;SDS011;52992;52.084;5.412;2023-02-15T17:55:27;52.47;;;24.80;;
66189;SDS011;52992;52.084;5.412;2023-02-15T17:58:09;50.90;;;25.17;;
66189;SDS011;52992;52.084;5.412;2023-02-15T18:00:39;47.60;;;25.53;;
66189;SDS011;52992;52.084;5.412;2023-02-15T18:03:47;54.43;;;27.37;;
66189;SDS011;52992;52.084;5.412;2023-02-15T18:06:34;52.97;;;24.57;;
66189;SDS011;52992;52.084;5.412;2023-02-15T18:09:25;59.07;;;26.33;;
66189;SDS011;52992;52.084;5.412;2023-02-15T18:12:14;50.17;;;26.47;;
66189;SDS011;52992;52.084;5.412;2023-02-15T18:14:43;50.17;;;26.00;;
66189;SDS011;52992;52.084;5.412;2023-02-15T18:17:10;48.70;;;25.43;;
66189;SDS011;52992;52.084;5.412;2023-02-15T18:19:39;70.53;;;33.10;;
66189;SDS011;52992;52.084;5.412;2023-02-15T18:22:11;56.97;;;28.37;;